Time;durP1;ratioP1;P1;durP2;ratioP2;P2;SDS_P1;SDS_P2;PMS_P1;PMS_P2;Temp;Humidity;BMP_temperature;BMP_pressure;BME280_temperature;BME280_humidity;BME280_pressure;Samples;Min_cycle;Max_cycle;Signal;HPM_P1;HPM_P2
2023/12/07 00:01:23;;;;;;;0.20;0.10;;;;;;;1.66;100.00;100654.09;5060519;28;20485;-56
2023/12/07 00:03:50;;;;;;;0.20;0.10;;;;;;;1.48;100.00;100662.56;5074477;28;20458;-55
2023/12/07 00:06:16;;;;;;;0.20;0.10;;;;;;;1.41;99.30;100663.34;5073429;28;20492;-56
2023/12/07 00:08:43;;;;;;;0.20;0.10;;;;;;;1.53;100.00;100660.03;5073565;28;20446;-55
2023/12/07 00:11:10;;;;;;;0.30;0.20;;;;;;;1.44;99.03;100666.91;5073673;28;20460;-55
2023/12/07 00:13:36;;;;;;;0.20;0.10;;;;;;;1.40;98.81;100669.47;5062119;28;20482;-56
2023/12/07 00:16:03;;;;;;;0.20;0.20;;;;;;;1.27;98.71;100657.91;5060064;28;20460;-56
2023/12/07 00:18:29;;;;;;;0.20;0.10;;;;;;;1.27;99.20;100665.78;5073865;28;20469;-56
2023/12/07 00:20:56;;;;;;;0.20;0.10;;;;;;;1.10;99.41;100672.50;5073147;28;20450;-56
2023/12/07 00:23:23;;;;;;;0.20;0.10;;;;;;;1.06;99.45;100671.53;5060572;28;20453;-55
2023/12/07 00:25:50;;;;;;;0.20;0.10;;;;;;;1.14;99.86;100662.09;5073067;28;20500;-56
2023/12/07 00:28:18;;;;;;;0.20;0.10;;;;;;;1.25;99.62;100669.22;5068752;28;20568;-56
2023/12/07 00:30:44;;;;;;;0.20;0.10;;;;;;;1.03;99.67;100662.78;5059824;28;20511;-55
2023/12/07 00:33:11;;;;;;;0.20;0.10;;;;;;;1.06;100.00;100673.28;5073351;28;20572;-56
2023/12/07 00:35:37;;;;;;;0.20;0.10;;;;;;;1.16;100.00;100672.56;5073002;28;20935;-56
2023/12/07 00:38:06;;;;;;;0.20;0.10;;;;;;;0.92;100.00;100673.06;5072851;28;20544;-54
2023/12/07 00:40:35;;;;;;;0.20;0.10;;;;;;;1.32;100.00;100684.16;5073322;28;20525;-56
2023/12/07 00:43:03;;;;;;;0.20;0.10;;;;;;;1.25;100.00;100683.19;5058583;28;20517;-56
2023/12/07 00:45:30;;;;;;;0.20;0.10;;;;;;;1.05;100.00;100682.88;5057715;28;20571;-55
2023/12/07 00:47:57;;;;;;;0.20;0.10;;;;;;;1.24;100.00;100684.06;5067249;28;20466;-56
2023/12/07 00:50:23;;;;;;;0.20;0.10;;;;;;;1.13;99.53;100676.03;5072797;28;20536;-55
2023/12/07 00:52:49;;;;;;;0.20;0.10;;;;;;;1.06;100.00;100681.13;5072688;28;20456;-57
2023/12/07 00:55:16;;;;;;;0.20;0.10;;;;;;;1.19;100.00;100683.97;5072320;28;20532;-55
2023/12/07 00:57:42;;;;;;;0.20;0.10;;;;;;;1.04;100.00;100690.69;5067623;28;20497;-56
2023/12/07 01:00:10;;;;;;;0.20;0.10;;;;;;;0.92;100.00;100690.50;5072681;28;21041;-55
2023/12/07 01:02:37;;;;;;;0.20;0.10;;;;;;;0.78;100.00;100696.38;5072525;28;20457;-56
2023/12/07 01:05:03;;;;;;;0.20;0.10;;;;;;;0.94;99.22;100699.25;5072337;28;20489;-56
2023/12/07 01:07:30;;;;;;;0.20;0.10;;;;;;;0.93;99.50;100700.97;5072541;28;20465;-56
2023/12/07 01:09:56;;;;;;;0.20;0.20;;;;;;;0.66;99.78;100697.88;5063278;28;20959;-56
2023/12/07 01:12:23;;;;;;;0.20;0.10;;;;;;;0.76;99.11;100710.28;5068077;28;20798;-56
2023/12/07 01:14:50;;;;;;;0.20;0.10;;;;;;;0.73;99.74;100708.50;5068679;28;20485;-55
2023/12/07 01:17:17;;;;;;;0.20;0.10;;;;;;;0.80;99.57;100712.09;5072168;28;20916;-55
2023/12/07 01:19:44;;;;;;;0.20;0.10;;;;;;;0.79;99.06;100710.34;5072136;28;20833;-55
2023/12/07 01:22:10;;;;;;;0.20;0.10;;;;;;;0.72;99.08;100716.31;5068146;28;20474;-55
2023/12/07 01:24:37;;;;;;;0.20;0.10;;;;;;;0.75;99.58;100708.53;5061772;28;20452;-54
2023/12/07 01:27:03;;;;;;;0.20;0.10;;;;;;;0.65;98.28;100714.44;5068387;28;20930;-55
2023/12/07 01:29:30;;;;;;;0.30;0.30;;;;;;;0.66;99.14;100705.75;5069885;28;20537;-55
2023/12/07 01:31:56;;;;;;;0.20;0.10;;;;;;;0.61;98.89;100707.41;5071951;28;20454;-55
2023/12/07 01:34:22;;;;;;;0.20;0.10;;;;;;;0.70;98.96;100700.59;5071938;28;20532;-55
2023/12/07 01:36:49;;;;;;;0.20;0.10;;;;;;;0.59;99.31;100702.16;5071955;28;20470;-55
2023/12/07 01:39:15;;;;;;;0.20;0.10;;;;;;;0.66;100.00;100708.34;5072067;28;20529;-56
2023/12/07 01:41:43;;;;;;;0.20;0.10;;;;;;;0.89;99.37;100723.63;5067738;28;20451;-55
2023/12/07 01:44:09;;;;;;;0.20;0.10;;;;;;;0.91;99.89;100726.25;5055653;28;20450;-55
2023/12/07 01:46:36;;;;;;;0.20;0.13;;;;;;;0.77;100.00;100712.94;5068670;28;20489;-55
2023/12/07 01:49:03;;;;;;;0.20;0.10;;;;;;;0.65;99.04;100715.31;5071822;28;21009;-55
2023/12/07 01:51:31;;;;;;;0.20;0.10;;;;;;;0.44;98.49;100720.16;5066627;28;20495;-55
2023/12/07 01:53:57;;;;;;;0.20;0.10;;;;;;;0.50;99.14;100717.66;5071138;28;20449;-55
2023/12/07 01:56:25;;;;;;;0.20;0.10;;;;;;;0.45;98.92;100724.53;5072326;28;20865;-55
2023/12/07 01:58:52;;;;;;;0.20;0.10;;;;;;;0.50;98.15;100721.16;5072263;28;20456;-56
2023/12/07 02:01:18;;;;;;;0.20;0.10;;;;;;;0.43;99.05;100724.50;5072425;28;20536;-56
2023/12/07 02:03:45;;;;;;;0.20;0.10;;;;;;;0.60;100.00;100724.81;5073207;28;20826;-56
2023/12/07 02:06:13;;;;;;;0.20;0.10;;;;;;;0.47;100.00;100726.31;5068596;28;20493;-55
2023/12/07 02:08:41;;;;;;;0.20;0.10;;;;;;;0.37;98.50;100728.72;5073091;28;20545;-56
2023/12/07 02:11:09;;;;;;;0.20;0.10;;;;;;;0.32;99.64;100722.53;5071420;28;20449;-56
2023/12/07 02:13:37;;;;;;;0.20;0.10;;;;;;;0.45;100.00;100714.97;5058352;28;20462;-55
2023/12/07 02:16:26;;;;;;;0.20;0.10;;;;;;;0.47;99.81;100715.88;5070571;28;20446;-55
2023/12/07 02:19:10;;;;;;;0.20;0.10;;;;;;;0.31;99.01;100728.63;5071549;28;20519;-56
2023/12/07 02:22:08;;;;;;;0.20;0.10;;;;;;;0.66;98.36;100717.06;5071575;28;20445;-57
2023/12/07 02:24:37;;;;;;;0.20;0.10;;;;;;;0.42;98.45;100721.88;5060148;28;20465;-56
2023/12/07 02:27:04;;;;;;;0.20;0.10;;;;;;;0.35;97.89;100730.44;5067829;28;20517;-55
2023/12/07 02:29:30;;;;;;;0.20;0.10;;;;;;;0.43;99.36;100721.03;5061457;28;20446;-55
2023/12/07 02:31:57;;;;;;;0.20;0.10;;;;;;;0.40;98.33;100721.81;5070985;28;20876;-55
2023/12/07 02:34:23;;;;;;;0.20;0.10;;;;;;;0.32;99.03;100733.88;5071425;28;20552;-56
2023/12/07 02:36:53;;;;;;;0.20;0.10;;;;;;;0.29;99.44;100726.84;5068112;28;20835;-55
2023/12/07 02:39:21;;;;;;;0.20;0.20;;;;;;;0.27;97.82;100736.41;5060390;28;20449;-56
2023/12/07 02:41:49;;;;;;;0.20;0.10;;;;;;;0.25;98.93;100732.84;5071304;28;20473;-56
2023/12/07 02:44:15;;;;;;;0.20;0.10;;;;;;;0.22;97.43;100735.41;5062546;28;21011;-55
2023/12/07 02:46:42;;;;;;;0.20;0.10;;;;;;;0.17;97.72;100730.97;5063677;28;20518;-55
2023/12/07 02:49:08;;;;;;;0.20;0.10;;;;;;;0.20;97.92;100734.50;5061609;28;20493;-56
2023/12/07 02:51:35;;;;;;;0.20;0.10;;;;;;;0.06;98.23;100732.47;5071836;28;20458;-53
2023/12/07 02:54:01;;;;;;;0.20;0.10;;;;;;;0.15;98.32;100722.22;5071400;28;20484;-53
2023/12/07 02:56:28;;;;;;;0.20;0.10;;;;;;;-0.04;98.82;100726.16;5071062;28;20446;-52
2023/12/07 02:58:54;;;;;;;0.20;0.10;;;;;;;-0.12;98.57;100736.47;5071319;28;20477;-53
2023/12/07 03:01:21;;;;;;;0.20;0.10;;;;;;;-0.22;97.65;100737.09;5065679;28;20533;-52
2023/12/07 03:03:47;;;;;;;0.20;0.10;;;;;;;-0.23;97.90;100735.34;5062575;28;20465;-53
2023/12/07 03:06:15;;;;;;;0.20;0.10;;;;;;;-0.20;98.44;100745.84;5073990;28;20493;-52
2023/12/07 03:08:42;;;;;;;0.20;0.10;;;;;;;-0.07;98.45;100753.09;5071814;28;20454;-52
2023/12/07 03:11:08;;;;;;;0.20;0.10;;;;;;;0.05;99.05;100742.03;5074735;28;20456;-53
2023/12/07 03:13:34;;;;;;;0.20;0.10;;;;;;;-0.27;97.75;100741.34;5072965;28;20956;-53
2023/12/07 03:16:01;;;;;;;0.20;0.10;;;;;;;-0.03;98.53;100749.69;5073470;28;20450;-52
2023/12/07 03:18:27;;;;;;;0.20;0.10;;;;;;;0.05;98.32;100752.50;5073300;28;20570;-52
2023/12/07 03:20:54;;;;;;;0.20;0.10;;;;;;;-0.06;97.99;100748.75;5074318;28;20530;-54
2023/12/07 03:23:20;;;;;;;0.20;0.10;;;;;;;0.06;98.61;100751.63;5062253;28;20450;-52
2023/12/07 03:25:47;;;;;;;0.20;0.10;;;;;;;-0.08;98.43;100751.34;5073762;28;20519;-52
2023/12/07 03:28:13;;;;;;;0.20;0.10;;;;;;;-0.08;98.73;100755.69;5071034;28;20535;-52
2023/12/07 03:30:40;;;;;;;0.30;0.20;;;;;;;-0.06;98.65;100749.63;5067334;28;20960;-53
2023/12/07 03:33:06;;;;;;;0.20;0.10;;;;;;;0.05;98.52;100760.31;5058552;28;20549;-52
2023/12/07 03:35:33;;;;;;;0.20;0.10;;;;;;;0.03;98.35;100764.63;5074008;28;20524;-52
2023/12/07 03:38:00;;;;;;;0.20;0.10;;;;;;;0.05;98.11;100764.66;5074527;28;20572;-53
2023/12/07 03:40:27;;;;;;;0.20;0.10;;;;;;;0.23;98.80;100758.09;5066906;28;20999;-53
2023/12/07 03:42:54;;;;;;;0.20;0.10;;;;;;;0.21;99.02;100745.84;5067550;28;20531;-52
2023/12/07 03:45:23;;;;;;;0.20;0.10;;;;;;;0.20;98.54;100757.16;5059949;28;20454;-53
2023/12/07 03:47:49;;;;;;;0.20;0.10;;;;;;;0.20;99.82;100751.91;5073929;28;20501;-53
2023/12/07 03:50:16;;;;;;;0.20;0.10;;;;;;;0.32;99.90;100753.91;5073989;28;20537;-53
2023/12/07 03:52:42;;;;;;;0.20;0.10;;;;;;;0.32;99.84;100757.41;5072867;28;20450;-52
2023/12/07 03:55:10;;;;;;;0.20;0.10;;;;;;;0.48;99.74;100754.22;5067681;28;20489;-52
2023/12/07 03:57:37;;;;;;;0.20;0.10;;;;;;;0.50;99.92;100746.41;5058546;28;20494;-53
2023/12/07 04:00:07;;;;;;;0.20;0.10;;;;;;;0.25;99.16;100740.69;5073742;28;20452;-52
2023/12/07 04:02:34;;;;;;;0.20;0.10;;;;;;;0.44;99.44;100759.38;5074105;28;20527;-52
2023/12/07 04:05:01;;;;;;;0.20;0.10;;;;;;;0.44;99.23;100760.25;5073987;28;20450;-53
2023/12/07 04:07:32;;;;;;;0.20;0.10;;;;;;;0.44;99.78;100764.63;5073443;28;20551;-52
2023/12/07 04:09:58;;;;;;;0.20;0.10;;;;;;;0.33;100.00;100756.56;5063645;28;20482;-52
2023/12/07 04:12:25;;;;;;;0.20;0.10;;;;;;;0.49;99.48;100760.34;5069785;28;20454;-53
2023/12/07 04:14:52;;;;;;;0.20;0.10;;;;;;;0.54;100.00;100758.69;5071315;28;20541;-53
2023/12/07 04:17:18;;;;;;;0.20;0.10;;;;;;;0.51;100.00;100761.25;5072774;28;20493;-53
2023/12/07 04:19:45;;;;;;;0.20;0.10;;;;;;;0.65;100.00;100767.63;5073549;28;20446;-54
2023/12/07 04:22:11;;;;;;;0.20;0.10;;;;;;;0.66;100.00;100753.69;5069625;28;20458;-53
2023/12/07 04:24:38;;;;;;;0.20;0.10;;;;;;;0.54;100.00;100754.34;5063119;28;20464;-53
2023/12/07 04:27:04;;;;;;;0.20;0.10;;;;;;;0.51;100.00;100761.25;5069094;28;20525;-52
2023/12/07 04:29:31;;;;;;;0.20;0.10;;;;;;;0.63;100.00;100764.09;5073557;28;20442;-52
2023/12/07 04:31:57;;;;;;;0.20;0.13;;;;;;;0.50;100.00;100762.09;5073104;28;20544;-53
2023/12/07 04:34:24;;;;;;;0.20;0.10;;;;;;;0.57;100.00;100759.66;5073477;28;20891;-52
2023/12/07 04:36:51;;;;;;;0.20;0.10;;;;;;;0.49;100.00;100762.97;5072475;28;20462;-53
2023/12/07 04:39:17;;;;;;;0.20;0.10;;;;;;;0.75;100.00;100764.34;5073187;28;20537;-53
2023/12/07 04:41:44;;;;;;;0.20;0.10;;;;;;;0.70;100.00;100771.25;5072623;28;20940;-53
2023/12/07 04:44:10;;;;;;;0.20;0.10;;;;;;;0.46;99.86;100766.41;5066363;28;20455;-52
2023/12/07 04:46:37;;;;;;;0.20;0.10;;;;;;;0.46;99.31;100766.41;5069359;28;20864;-53
2023/12/07 04:49:03;;;;;;;0.20;0.10;;;;;;;0.63;100.00;100769.34;5072962;28;20446;-53
2023/12/07 04:51:30;;;;;;;0.20;0.10;;;;;;;0.60;99.83;100769.28;5068388;28;20534;-53
2023/12/07 04:53:56;;;;;;;0.20;0.10;;;;;;;0.54;99.98;100770.03;5061853;28;20452;-53
2023/12/07 04:56:39;;;;;;;0.20;0.10;;;;;;;0.40;99.45;100773.22;5072797;28;20550;-52
2023/12/07 04:59:06;;;;;;;0.20;0.10;;;;;;;0.38;99.34;100774.94;5072903;28;20533;-53
2023/12/07 05:01:32;;;;;;;0.20;0.10;;;;;;;0.25;99.04;100772.06;5065593;28;20473;-52
2023/12/07 05:03:59;;;;;;;0.20;0.10;;;;;;;0.13;98.84;100776.16;5065234;28;20788;-53
2023/12/07 05:06:26;;;;;;;0.20;0.10;;;;;;;0.11;98.58;100773.50;5072133;28;20482;-53
2023/12/07 05:08:52;;;;;;;0.20;0.10;;;;;;;0.00;98.88;100775.03;5072477;28;20870;-53
2023/12/07 05:11:19;;;;;;;0.20;0.10;;;;;;;-0.07;98.17;100766.16;5072685;28;20816;-53
2023/12/07 05:13:45;;;;;;;0.20;0.10;;;;;;;-0.08;98.23;100760.91;5069198;28;20457;-53
2023/12/07 05:16:12;;;;;;;0.20;0.10;;;;;;;-0.10;98.29;100762.59;5054675;28;20458;-52
2023/12/07 05:18:38;;;;;;;0.20;0.10;;;;;;;-0.15;97.85;100769.44;5065693;28;20888;-53
2023/12/07 05:21:05;;;;;;;0.20;0.10;;;;;;;-0.21;97.15;100761.47;5072116;28;20450;-53
2023/12/07 05:23:31;;;;;;;0.20;0.10;;;;;;;-0.28;97.56;100762.19;5058683;28;20549;-52
2023/12/07 05:25:59;;;;;;;0.20;0.10;;;;;;;-0.29;97.80;100758.69;5072452;28;20493;-52
2023/12/07 05:28:26;;;;;;;0.20;0.10;;;;;;;-0.40;96.95;100765.41;5067280;28;20573;-53
2023/12/07 05:30:53;;;;;;;0.20;0.10;;;;;;;-0.34;97.74;100766.41;5070371;28;20842;-52
2023/12/07 05:33:19;;;;;;;0.20;0.10;;;;;;;-0.39;98.00;100767.19;5063703;28;20451;-53
2023/12/07 05:35:46;;;;;;;0.20;0.10;;;;;;;-0.51;97.64;100767.78;5071902;28;20485;-53
2023/12/07 05:38:12;;;;;;;0.20;0.10;;;;;;;-0.33;97.88;100765.56;5071862;28;20554;-53
2023/12/07 05:40:39;;;;;;;0.20;0.10;;;;;;;-0.32;97.15;100769.94;5072129;28;20510;-52
2023/12/07 05:43:05;;;;;;;0.20;0.10;;;;;;;-0.22;98.31;100773.66;5069746;28;20459;-52
2023/12/07 05:45:32;;;;;;;0.20;0.10;;;;;;;-0.13;98.47;100788.66;5060289;28;20450;-53
2023/12/07 05:47:58;;;;;;;0.20;0.10;;;;;;;-0.17;98.33;100787.69;5071646;28;20486;-53
2023/12/07 05:50:24;;;;;;;0.20;0.10;;;;;;;-0.20;98.80;100781.53;5071242;28;20958;-53
2023/12/07 05:52:51;;;;;;;0.20;0.10;;;;;;;-0.31;98.13;100783.88;5072095;28;20454;-53
2023/12/07 05:55:17;;;;;;;0.20;0.10;;;;;;;-0.27;98.66;100784.84;5065947;28;20512;-53
2023/12/07 05:57:47;;;;;;;0.20;0.10;;;;;;;-0.28;98.38;100791.78;5058497;28;20942;-52
2023/12/07 06:00:16;;;;;;;0.20;0.20;;;;;;;-0.50;97.93;100793.03;5070484;28;21030;-52
2023/12/07 06:02:42;;;;;;;0.20;0.10;;;;;;;-0.45;98.07;100783.56;5068900;28;20482;-53
2023/12/07 06:05:09;;;;;;;0.20;0.10;;;;;;;-0.43;98.14;100787.09;5061524;28;20466;-53
2023/12/07 06:07:35;;;;;;;0.20;0.10;;;;;;;-0.13;99.01;100793.91;5057203;28;20485;-52
2023/12/07 06:10:02;;;;;;;0.20;0.10;;;;;;;-0.21;99.56;100795.44;5071744;28;20483;-52
2023/12/07 06:12:28;;;;;;;0.20;0.10;;;;;;;-0.10;98.31;100793.97;5055856;28;20447;-53
2023/12/07 06:14:57;;;;;;;0.20;0.10;;;;;;;-0.04;99.11;100797.56;5052276;28;20446;-52
2023/12/07 06:17:23;;;;;;;0.20;0.10;;;;;;;-0.09;100.00;100806.16;5068908;28;20501;-52
2023/12/07 06:19:50;;;;;;;0.20;0.20;;;;;;;-0.20;99.26;100795.47;5064695;28;20947;-52
2023/12/07 06:22:17;;;;;;;0.20;0.10;;;;;;;-0.11;99.75;100808.75;5068074;28;20531;-52
2023/12/07 06:24:44;;;;;;;0.20;0.10;;;;;;;-0.07;99.57;100813.19;5059714;28;20450;-52
2023/12/07 06:27:11;;;;;;;0.20;0.10;;;;;;;-0.03;99.82;100803.69;5061619;28;20489;-53
2023/12/07 06:29:37;;;;;;;0.20;0.10;;;;;;;0.18;100.00;100808.50;5071664;28;20450;-52
2023/12/07 06:32:04;;;;;;;0.20;0.10;;;;;;;0.07;99.85;100815.22;5070619;28;20939;-52
2023/12/07 06:34:30;;;;;;;0.20;0.10;;;;;;;0.21;99.85;100819.03;5071563;28;20477;-52
2023/12/07 06:36:57;;;;;;;0.20;0.10;;;;;;;0.20;100.00;100818.16;5071215;28;20997;-52
2023/12/07 06:39:24;;;;;;;0.20;0.10;;;;;;;0.26;100.00;100822.59;5071646;28;20803;-52
2023/12/07 06:41:50;;;;;;;0.20;0.10;;;;;;;0.32;100.00;100825.38;5075200;28;20529;-52
2023/12/07 06:44:17;;;;;;;0.20;0.10;;;;;;;0.53;99.99;100830.16;5071041;28;20923;-52
2023/12/07 06:46:43;;;;;;;0.20;0.10;;;;;;;0.55;100.00;100838.94;5063672;28;20567;-52
2023/12/07 06:49:12;;;;;;;0.20;0.10;;;;;;;0.79;100.00;100839.41;5067808;28;20454;-53
2023/12/07 06:51:39;;;;;;;0.20;0.10;;;;;;;0.87;100.00;100843.06;5074678;28;20453;-53
2023/12/07 06:54:05;;;;;;;0.20;0.10;;;;;;;0.89;100.00;100849.22;5067490;28;20450;-52
2023/12/07 06:56:32;;;;;;;0.20;0.10;;;;;;;0.93;100.00;100846.66;5062015;28;20471;-53
2023/12/07 06:58:58;;;;;;;0.20;0.20;;;;;;;0.92;100.00;100847.50;5067217;28;21025;-53
2023/12/07 07:01:24;;;;;;;0.20;0.10;;;;;;;0.81;100.00;100858.63;5062553;28;20484;-53
2023/12/07 07:03:51;;;;;;;0.20;0.10;;;;;;;1.00;100.00;100856.41;5070245;28;20431;-53
2023/12/07 07:06:17;;;;;;;0.20;0.10;;;;;;;0.96;100.00;100852.84;5069487;28;20445;-53
2023/12/07 07:08:44;;;;;;;0.20;0.10;;;;;;;0.90;100.00;100852.72;5075092;28;20536;-53
2023/12/07 07:11:14;;;;;;;0.20;0.17;;;;;;;0.89;100.00;100854.44;5062399;28;20509;-53
2023/12/07 07:13:41;;;;;;;0.20;0.10;;;;;;;0.87;100.00;100847.44;5063070;28;20552;-53
2023/12/07 07:16:08;;;;;;;0.20;0.10;;;;;;;0.96;100.00;100845.00;5065914;28;20541;-53
2023/12/07 07:18:38;;;;;;;0.20;0.10;;;;;;;1.13;100.00;100854.03;5068335;28;20453;-53
2023/12/07 07:21:05;;;;;;;0.70;0.70;;;;;;;1.07;100.00;100846.06;5063906;28;20493;-54
2023/12/07 07:23:31;;;;;;;0.20;0.10;;;;;;;1.21;100.00;100846.31;5066581;28;20494;-53
2023/12/07 07:25:58;;;;;;;0.20;0.10;;;;;;;1.26;100.00;100835.94;5068012;28;20516;-53
2023/12/07 07:28:24;;;;;;;0.50;0.47;;;;;;;1.36;100.00;100843.97;5064451;28;20486;-53
2023/12/07 07:30:51;;;;;;;0.20;0.10;;;;;;;1.36;100.00;100830.88;5056001;28;20866;-53
2023/12/07 07:33:17;;;;;;;0.20;0.10;;;;;;;1.26;100.00;100828.97;5070951;28;20489;-53
2023/12/07 07:35:45;;;;;;;0.20;0.10;;;;;;;1.10;100.00;100827.81;5073380;28;20466;-52
2023/12/07 07:38:14;;;;;;;0.20;0.10;;;;;;;1.25;100.00;100829.81;5073155;28;20585;-52
2023/12/07 07:40:41;;;;;;;0.20;0.10;;;;;;;1.41;100.00;100812.63;5074199;28;20450;-53
2023/12/07 07:43:08;;;;;;;0.20;0.10;;;;;;;1.47;100.00;100816.22;5073963;28;20985;-53
2023/12/07 07:45:34;;;;;;;0.20;0.10;;;;;;;1.58;100.00;100816.41;5064997;28;20461;-53
2023/12/07 07:48:01;;;;;;;0.20;0.10;;;;;;;1.75;100.00;100817.53;5073986;28;21070;-53
2023/12/07 07:50:28;;;;;;;0.20;0.10;;;;;;;1.86;100.00;100809.84;5074164;28;20450;-52
2023/12/07 07:52:55;;;;;;;0.20;0.10;;;;;;;1.95;100.00;100811.75;5072906;28;20454;-53
2023/12/07 07:55:22;;;;;;;0.20;0.10;;;;;;;1.97;100.00;100808.28;5073991;28;20460;-53
2023/12/07 07:57:48;;;;;;;0.20;0.10;;;;;;;1.88;100.00;100807.25;5073781;28;20465;-52
2023/12/07 08:00:15;;;;;;;0.20;0.13;;;;;;;2.05;100.00;100808.38;5074048;28;20464;-52
2023/12/07 08:02:41;;;;;;;0.20;0.10;;;;;;;2.03;100.00;100807.47;5073884;28;20893;-52
2023/12/07 08:05:09;;;;;;;0.20;0.10;;;;;;;1.92;100.00;100802.09;5073890;28;20481;-52
2023/12/07 08:07:35;;;;;;;0.20;0.20;;;;;;;2.02;100.00;100803.09;5073626;28;20547;-53
2023/12/07 08:10:03;;;;;;;0.20;0.10;;;;;;;2.08;100.00;100801.44;5073546;28;20449;-52
2023/12/07 08:12:30;;;;;;;0.20;0.10;;;;;;;2.05;100.00;100808.38;5073661;28;20476;-53
2023/12/07 08:14:56;;;;;;;0.20;0.10;;;;;;;2.06;100.00;100803.19;5071416;28;20472;-53
2023/12/07 08:17:23;;;;;;;0.20;0.10;;;;;;;2.07;100.00;100798.81;5073213;28;20466;-52
2023/12/07 08:19:49;;;;;;;0.20;0.10;;;;;;;2.13;100.00;100798.00;5073491;28;20446;-53
2023/12/07 08:22:16;;;;;;;0.20;0.10;;;;;;;2.30;100.00;100789.50;5069631;28;20451;-52
2023/12/07 08:24:42;;;;;;;0.30;0.10;;;;;;;2.45;100.00;100791.41;5063854;28;20446;-53
2023/12/07 08:27:10;;;;;;;0.20;0.10;;;;;;;2.54;100.00;100781.06;5069514;28;20516;-53
2023/12/07 08:29:37;;;;;;;0.20;0.10;;;;;;;2.47;100.00;100778.31;5073414;28;20457;-53
2023/12/07 08:32:04;;;;;;;0.20;0.20;;;;;;;2.43;100.00;100785.28;5072961;28;20552;-52
2023/12/07 08:34:30;;;;;;;0.20;0.10;;;;;;;2.58;100.00;100784.59;5073239;28;20481;-53
2023/12/07 08:36:57;;;;;;;0.20;0.10;;;;;;;2.47;100.00;100783.56;5073007;28;20979;-52
2023/12/07 08:39:25;;;;;;;0.20;0.10;;;;;;;2.46;100.00;100782.69;5073121;28;20442;-52
2023/12/07 08:41:51;;;;;;;0.20;0.10;;;;;;;2.60;100.00;100795.97;5073043;28;20450;-53
2023/12/07 08:44:18;;;;;;;0.20;0.10;;;;;;;2.60;100.00;100798.59;5065156;28;20839;-53
2023/12/07 08:46:45;;;;;;;0.20;0.10;;;;;;;2.49;100.00;100781.88;5071560;28;20991;-53
2023/12/07 08:49:11;;;;;;;0.20;0.10;;;;;;;2.58;100.00;100788.09;5071698;28;20523;-53
2023/12/07 08:51:38;;;;;;;0.20;0.10;;;;;;;2.73;100.00;100786.50;5073135;28;20503;-54
2023/12/07 08:54:11;;;;;;;0.20;0.10;;;;;;;2.66;100.00;100775.94;5072778;28;20457;-54
2023/12/07 08:56:38;;;;;;;0.20;0.10;;;;;;;2.57;100.00;100769.72;5072695;28;20505;-54
2023/12/07 08:59:04;;;;;;;0.20;0.10;;;;;;;2.63;100.00;100767.16;5072852;28;20454;-54
2023/12/07 09:01:33;;;;;;;0.20;0.10;;;;;;;2.73;100.00;100770.75;5059569;28;20545;-54
2023/12/07 09:04:00;;;;;;;0.20;0.10;;;;;;;2.92;100.00;100777.97;5072234;28;20492;-54
2023/12/07 09:06:26;;;;;;;0.20;0.10;;;;;;;3.05;100.00;100779.84;5072836;28;20540;-54
2023/12/07 09:08:53;;;;;;;0.20;0.10;;;;;;;2.99;100.00;100785.03;5072248;28;20490;-55
2023/12/07 09:11:20;;;;;;;0.20;0.10;;;;;;;2.89;100.00;100786.72;5072558;28;20454;-54
2023/12/07 09:13:46;;;;;;;0.20;0.10;;;;;;;2.75;100.00;100785.69;5069641;28;20446;-54
2023/12/07 09:16:13;;;;;;;0.20;0.10;;;;;;;2.86;100.00;100791.03;5072251;28;20957;-54
2023/12/07 09:18:41;;;;;;;0.30;0.10;;;;;;;2.96;100.00;100788.50;5071983;28;20450;-54
2023/12/07 09:21:08;;;;;;;0.20;0.10;;;;;;;2.98;100.00;100789.41;5072507;28;20446;-54
2023/12/07 09:23:35;;;;;;;0.20;0.10;;;;;;;2.94;100.00;100782.38;5059061;28;20461;-54
2023/12/07 09:26:03;;;;;;;0.20;0.10;;;;;;;2.82;100.00;100783.97;5072530;28;20450;-54
2023/12/07 09:28:29;;;;;;;0.20;0.20;;;;;;;2.83;100.00;100781.38;5067973;28;20543;-55
2023/12/07 09:30:56;;;;;;;0.20;0.10;;;;;;;2.78;100.00;100790.06;5072090;28;20456;-54
2023/12/07 09:33:22;;;;;;;0.20;0.10;;;;;;;3.00;100.00;100799.91;5071902;28;20442;-54
2023/12/07 09:35:49;;;;;;;0.20;0.10;;;;;;;2.91;100.00;100799.84;5072300;28;20450;-54
2023/12/07 09:38:16;;;;;;;0.20;0.10;;;;;;;3.00;100.00;100802.53;5071768;28;21046;-54
2023/12/07 09:40:43;;;;;;;0.20;0.10;;;;;;;2.89;100.00;100802.47;5072091;28;20488;-54
2023/12/07 09:43:09;;;;;;;0.20;0.10;;;;;;;2.95;100.00;100797.25;5071839;28;20450;-54
2023/12/07 09:45:36;;;;;;;0.20;0.10;;;;;;;2.85;100.00;100797.13;5062147;28;20454;-54
2023/12/07 09:48:04;;;;;;;0.30;0.20;;;;;;;3.16;100.00;100786.09;5071489;28;20565;-55
2023/12/07 09:50:31;;;;;;;0.20;0.10;;;;;;;3.14;100.00;100784.31;5072265;28;20458;-54
2023/12/07 09:52:58;;;;;;;0.20;0.10;;;;;;;3.10;100.00;100787.78;5071593;28;20499;-55
2023/12/07 09:55:34;;;;;;;0.30;0.10;;;;;;;2.89;100.00;100793.69;5071896;28;20445;-54
2023/12/07 09:58:06;;;;;;;0.20;0.10;;;;;;;2.95;100.00;100793.75;5071500;28;20469;-54
2023/12/07 10:00:35;;;;;;;0.20;0.10;;;;;;;3.00;100.00;100797.28;5071445;28;20527;-54
2023/12/07 10:03:02;;;;;;;0.20;0.10;;;;;;;2.93;100.00;100798.13;5071787;28;20449;-54
2023/12/07 10:05:28;;;;;;;0.20;0.10;;;;;;;2.90;100.00;100798.09;5071778;28;20450;-54
2023/12/07 10:07:55;;;;;;;0.20;0.10;;;;;;;2.86;100.00;100788.41;5071289;28;21018;-54
2023/12/07 10:10:21;;;;;;;0.20;0.10;;;;;;;2.80;100.00;100781.34;5071617;28;20537;-54
2023/12/07 10:12:53;;;;;;;0.20;0.10;;;;;;;2.77;100.00;100788.31;5071441;28;20515;-54
2023/12/07 10:15:21;;;;;;;0.20;0.10;;;;;;;2.70;100.00;100783.84;5068083;28;20586;-54
2023/12/07 10:17:56;;;;;;;0.20;0.10;;;;;;;2.78;100.00;100779.56;5071529;28;20515;-54
2023/12/07 10:20:25;;;;;;;0.20;0.10;;;;;;;2.72;100.00;100775.13;5071474;28;20520;-54
2023/12/07 10:23:07;;;;;;;0.20;0.10;;;;;;;2.76;100.00;100781.31;5062756;28;20542;-54
2023/12/07 10:25:41;;;;;;;0.20;0.10;;;;;;;2.72;100.00;100783.00;5068895;28;20960;-54
2023/12/07 10:28:11;;;;;;;0.20;0.10;;;;;;;2.70;100.00;100786.47;5067951;28;20556;-55
2023/12/07 10:30:43;;;;;;;0.20;0.10;;;;;;;2.65;100.00;100779.44;5071526;28;20474;-54
2023/12/07 10:33:12;;;;;;;0.20;0.10;;;;;;;2.72;100.00;100779.50;5071351;28;20537;-54
2023/12/07 10:35:40;;;;;;;0.20;0.10;;;;;;;2.72;100.00;100771.63;5071328;28;20450;-54
2023/12/07 10:38:08;;;;;;;0.20;0.10;;;;;;;2.60;100.00;100762.78;5071682;28;20473;-54
2023/12/07 10:40:34;;;;;;;0.20;0.10;;;;;;;2.65;100.00;100757.56;5070328;28;20489;-54
2023/12/07 10:43:05;;;;;;;0.20;0.10;;;;;;;2.70;100.00;100760.22;5071233;28;20820;-54
2023/12/07 10:45:34;;;;;;;0.20;0.10;;;;;;;2.83;100.00;100756.88;5061113;28;20824;-54
2023/12/07 10:48:07;;;;;;;0.20;0.10;;;;;;;2.84;100.00;100741.13;5057140;28;20680;-55
2023/12/07 10:50:37;;;;;;;0.20;0.10;;;;;;;2.71;100.00;100739.25;5060416;28;20451;-54
2023/12/07 10:53:20;;;;;;;0.20;0.10;;;;;;;2.93;100.00;100735.09;5055755;28;20465;-55
2023/12/07 10:55:55;;;;;;;0.20;0.10;;;;;;;2.76;100.00;100734.06;5069325;28;21022;-54
2023/12/07 10:58:25;;;;;;;0.20;0.10;;;;;;;2.52;100.00;100722.44;5050030;28;20474;-54
2023/12/07 11:00:52;;;;;;;0.30;0.10;;;;;;;2.56;100.00;100723.34;5065910;28;20461;-54
2023/12/07 11:03:23;;;;;;;0.20;0.10;;;;;;;2.51;100.00;100723.31;5071322;28;20863;-54
2023/12/07 11:05:50;;;;;;;0.20;0.10;;;;;;;2.47;100.00;100718.91;5071192;28;20523;-54
2023/12/07 11:08:23;;;;;;;0.20;0.10;;;;;;;2.59;100.00;100711.13;5071050;28;20583;-54
2023/12/07 11:11:03;;;;;;;0.20;0.10;;;;;;;2.56;100.00;100713.72;5070892;28;20445;-54
2023/12/07 11:13:31;;;;;;;0.20;0.10;;;;;;;2.44;100.00;100705.72;5069958;28;20450;-54
2023/12/07 11:15:58;;;;;;;0.20;0.10;;;;;;;2.20;100.00;100706.34;5070216;28;20900;-54
2023/12/07 11:18:26;;;;;;;0.30;0.20;;;;;;;2.13;100.00;100704.50;5071063;28;20477;-53
2023/12/07 11:20:54;;;;;;;0.20;0.10;;;;;;;2.04;100.00;100702.63;5070844;28;20450;-53
2023/12/07 11:23:22;;;;;;;0.20;0.10;;;;;;;2.05;100.00;100695.63;5058851;28;20482;-54
2023/12/07 11:25:51;;;;;;;0.20;0.10;;;;;;;2.32;100.00;100695.97;5070498;28;20861;-54
2023/12/07 11:28:17;;;;;;;0.20;0.10;;;;;;;2.18;100.00;100680.94;5070258;28;20489;-54